Time;durP1;ratioP1;P1;durP2;ratioP2;P2;SDS_P1;SDS_P2;PMS_P1;PMS_P2;Temp;Humidity;BMP_temperature;BMP_pressure;BME280_temperature;BME280_humidity;BME280_pressure;Samples;Min_cycle;Max_cycle;Signal;HPM_P1;HPM_P2
2023/10/03 00:00:31;;;;;;;9.18;4.68;;;;;;;14.85;97.15;98592.28;4161547;28;20243;-49
2023/10/03 00:02:33;;;;;;;6.60;4.45;;;;;;;14.94;96.55;98594.22;4156986;28;20258;-48
2023/10/03 00:04:35;;;;;;;6.57;3.92;;;;;;;14.75;96.66;98590.38;4155948;28;20304;-48
2023/10/03 00:06:38;;;;;;;12.20;5.38;;;;;;;14.69;97.84;98590.66;4156946;28;20648;-49
2023/10/03 00:08:44;;;;;;;9.38;5.28;;;;;;;14.69;97.86;98591.47;4151835;28;20320;-47
2023/10/03 00:10:46;;;;;;;14.02;6.30;;;;;;;14.68;97.58;98584.31;4153895;28;20212;-47
2023/10/03 00:12:49;;;;;;;12.57;5.40;;;;;;;14.62;97.05;98588.16;4158204;28;20211;-47
2023/10/03 00:14:51;;;;;;;7.22;5.03;;;;;;;14.58;98.29;98587.03;4157039;28;20709;-49
2023/10/03 00:16:52;;;;;;;6.45;5.00;;;;;;;14.53;99.50;98584.28;4157680;28;20232;-49
2023/10/03 00:18:54;;;;;;;6.43;3.70;;;;;;;14.55;98.83;98578.50;4158837;28;20211;-47
2023/10/03 00:20:56;;;;;;;12.80;6.75;;;;;;;14.54;98.82;98577.69;4155882;28;20201;-49
2023/10/03 00:22:58;;;;;;;10.50;4.72;;;;;;;14.59;98.73;98580.44;4157658;28;20659;-48
2023/10/03 00:25:01;;;;;;;9.15;5.55;;;;;;;14.47;98.92;98571.63;4160109;28;21120;-48
2023/10/03 00:27:05;;;;;;;10.40;5.88;;;;;;;14.49;98.13;98574.91;4153105;28;20393;-49
2023/10/03 00:29:13;;;;;;;6.40;4.68;;;;;;;14.57;98.23;98566.09;4154072;28;20651;-48
2023/10/03 00:31:15;;;;;;;7.07;4.40;;;;;;;14.51;98.47;98578.22;4160238;28;20210;-48
2023/10/03 00:33:17;;;;;;;9.05;5.72;;;;;;;14.54;98.59;98569.41;4152194;28;20268;-49
2023/10/03 00:35:20;;;;;;;7.75;5.53;;;;;;;14.55;97.65;98572.97;4168346;28;20208;-47
2023/10/03 00:37:23;;;;;;;6.15;5.07;;;;;;;14.54;97.84;98569.41;4160976;28;20228;-49
2023/10/03 00:39:27;;;;;;;8.13;4.93;;;;;;;14.52;97.45;98574.38;4160968;28;20213;-49
2023/10/03 00:41:29;;;;;;;10.15;4.07;;;;;;;14.51;97.97;98583.72;4152327;28;20227;-48
2023/10/03 00:43:31;;;;;;;5.35;4.00;;;;;;;14.37;99.01;98577.09;4152764;28;20626;-48
2023/10/03 00:45:34;;;;;;;7.00;5.22;;;;;;;14.44;98.68;98572.16;4155664;28;20228;-48
2023/10/03 00:47:35;;;;;;;6.60;4.90;;;;;;;14.40;98.41;98573.81;4153329;28;20685;-47
2023/10/03 00:49:38;;;;;;;16.77;5.05;;;;;;;14.44;98.03;98569.41;4156120;28;20297;-49
2023/10/03 00:51:40;;;;;;;8.65;5.35;;;;;;;14.31;98.18;98567.16;4138941;28;20694;-47
2023/10/03 00:53:43;;;;;;;10.48;5.03;;;;;;;14.39;98.09;98574.06;4156360;28;20269;-48
2023/10/03 00:55:47;;;;;;;5.03;3.58;;;;;;;14.34;98.53;98569.41;4151181;28;20234;-48
2023/10/03 00:57:50;;;;;;;5.60;3.88;;;;;;;14.28;98.34;98550.38;4155951;28;20242;-48
2023/10/03 00:59:56;;;;;;;7.57;4.85;;;;;;;14.25;98.39;98546.25;4138416;28;20685;-47
2023/10/03 01:02:05;;;;;;;6.90;3.85;;;;;;;14.26;98.63;98553.41;4169260;28;20199;-48
2023/10/03 01:04:17;;;;;;;9.82;4.57;;;;;;;14.22;98.60;98551.50;4151827;28;20211;-49
2023/10/03 01:06:19;;;;;;;13.02;5.35;;;;;;;14.24;98.67;98555.59;4172860;28;20236;-48
2023/10/03 01:08:23;;;;;;;11.75;5.80;;;;;;;14.32;99.43;98546.81;4155220;28;20658;-49
2023/10/03 01:10:25;;;;;;;7.38;3.67;;;;;;;14.25;99.86;98532.50;4156323;28;20205;-48
2023/10/03 01:12:29;;;;;;;9.07;3.63;;;;;;;14.27;100.00;98546.81;4156105;28;20212;-48
2023/10/03 01:14:34;;;;;;;4.80;3.65;;;;;;;14.23;99.76;98531.94;4149721;28;20742;-48
2023/10/03 01:16:37;;;;;;;8.55;5.25;;;;;;;14.30;99.92;98531.69;4156716;28;20595;-49
2023/10/03 01:18:41;;;;;;;9.35;4.70;;;;;;;14.27;100.00;98527.53;4156240;28;20637;-49
2023/10/03 01:20:48;;;;;;;5.30;4.00;;;;;;;14.32;100.00;98518.47;4155808;28;20593;-47
2023/10/03 01:22:54;;;;;;;7.85;4.40;;;;;;;14.38;100.00;98520.94;4140519;28;20634;-48
2023/10/03 01:24:56;;;;;;;13.43;4.72;;;;;;;14.43;100.00;98520.94;4155479;28;20287;-48
2023/10/03 01:26:57;;;;;;;6.28;3.45;;;;;;;14.42;100.00;98527.53;4173546;28;20225;-48
2023/10/03 01:28:59;;;;;;;11.63;4.28;;;;;;;14.35;100.00;98515.97;4172345;28;20214;-49
2023/10/03 01:31:01;;;;;;;11.20;5.30;;;;;;;14.40;100.00;98513.25;4154506;28;20212;-48
2023/10/03 01:33:04;;;;;;;10.85;4.53;;;;;;;14.39;100.00;98508.84;4154846;28;20297;-48
2023/10/03 01:35:08;;;;;;;10.25;4.18;;;;;;;14.40;100.00;98504.97;4155966;28;20351;-48
2023/10/03 01:37:10;;;;;;;7.63;3.65;;;;;;;14.43;99.88;98498.91;4156899;28;20266;-48
2023/10/03 01:39:12;;;;;;;6.50;4.05;;;;;;;14.43;100.00;98498.91;4159510;28;20208;-50
2023/10/03 01:41:14;;;;;;;11.48;3.20;;;;;;;14.41;100.00;98492.84;4157886;28;20593;-48
2023/10/03 01:43:16;;;;;;;9.35;3.85;;;;;;;14.43;100.00;98492.59;4156491;28;20629;-49
2023/10/03 01:45:23;;;;;;;3.85;2.97;;;;;;;14.41;100.00;98495.63;4155613;28;20276;-49
2023/10/03 01:47:24;;;;;;;6.70;3.92;;;;;;;14.42;100.00;98497.25;4153289;28;20205;-47
2023/10/03 01:49:28;;;;;;;6.18;3.60;;;;;;;14.46;100.00;98490.13;4154541;28;20263;-48
2023/10/03 01:51:30;;;;;;;7.05;3.58;;;;;;;14.47;100.00;98500.03;4156004;28;20279;-49
2023/10/03 01:53:32;;;;;;;3.42;3.00;;;;;;;14.43;100.00;98489.84;4151512;28;20631;-48
2023/10/03 01:55:35;;;;;;;9.43;4.43;;;;;;;14.43;100.00;98492.59;4153716;28;20239;-48
2023/10/03 01:57:37;;;;;;;6.03;3.70;;;;;;;14.53;100.00;98493.41;4156429;28;20315;-49
2023/10/03 01:59:41;;;;;;;10.35;3.85;;;;;;;14.49;100.00;98486.78;4140750;28;20217;-49
2023/10/03 02:01:43;;;;;;;4.53;3.55;;;;;;;14.47;100.00;98488.16;4154974;28;20219;-49
2023/10/03 02:03:45;;;;;;;4.20;3.13;;;;;;;14.52;100.00;98491.78;4155246;28;20290;-47
2023/10/03 02:05:48;;;;;;;4.43;3.08;;;;;;;14.52;100.00;98486.25;4154835;28;20304;-49
2023/10/03 02:07:55;;;;;;;4.28;3.28;;;;;;;14.57;100.00;98489.00;4155403;28;20266;-48
2023/10/03 02:09:57;;;;;;;4.55;3.60;;;;;;;14.65;100.00;98490.38;4156086;28;20204;-50
2023/10/03 02:11:59;;;;;;;3.08;2.08;;;;;;;14.84;100.00;98472.97;4136120;28;20245;-48
2023/10/03 02:14:03;;;;;;;4.97;3.22;;;;;;;14.92;100.00;98466.94;4174317;28;20212;-48
2023/10/03 02:16:07;;;;;;;4.28;3.17;;;;;;;15.10;100.00;98471.81;4159583;28;20240;-48
2023/10/03 02:18:10;;;;;;;9.48;1.95;;;;;;;15.22;100.00;98480.59;4141836;28;21166;-48
2023/10/03 02:20:16;;;;;;;4.35;2.90;;;;;;;15.25;100.00;98469.03;4160506;28;20213;-48
2023/10/03 02:22:19;;;;;;;6.20;2.40;;;;;;;15.27;99.94;98472.31;4159065;28;20291;-47
2023/10/03 02:24:21;;;;;;;4.03;1.95;;;;;;;15.29;99.80;98469.31;4169920;28;20207;-48
2023/10/03 02:26:25;;;;;;;3.47;2.53;;;;;;;15.32;100.00;98469.59;4168955;28;20250;-48
2023/10/03 02:28:27;;;;;;;4.55;2.95;;;;;;;15.33;100.00;98465.72;4161905;28;20208;-49
2023/10/03 02:30:29;;;;;;;4.53;2.92;;;;;;;15.43;99.62;98471.19;4165100;28;20296;-49
2023/10/03 02:32:31;;;;;;;5.50;2.22;;;;;;;15.46;98.38;98470.63;4163235;28;20566;-48
2023/10/03 02:34:33;;;;;;;10.50;2.50;;;;;;;15.48;98.59;98462.91;4162102;28;20204;-48
2023/10/03 02:36:35;;;;;;;3.00;2.35;;;;;;;15.56;98.59;98464.25;4160640;28;20238;-49
2023/10/03 02:38:37;;;;;;;4.40;2.35;;;;;;;15.74;98.72;98463.59;4161575;28;20576;-48
2023/10/03 02:40:40;;;;;;;2.90;2.15;;;;;;;15.80;98.53;98465.22;4162331;28;20671;-48
2023/10/03 02:42:41;;;;;;;4.03;2.08;;;;;;;15.75;97.29;98459.75;4162693;28;20220;-48
2023/10/03 02:44:44;;;;;;;7.97;2.63;;;;;;;15.74;97.46;98467.19;4162691;28;20215;-49
2023/10/03 02:46:45;;;;;;;3.38;2.25;;;;;;;15.76;97.43;98453.91;4171809;28;20274;-48
2023/10/03 02:48:48;;;;;;;3.25;2.50;;;;;;;15.78;97.76;98453.63;4153047;28;20614;-48
2023/10/03 02:50:51;;;;;;;3.97;1.63;;;;;;;15.90;97.33;98443.88;4170367;28;20212;-47
2023/10/03 02:52:57;;;;;;;3.20;2.13;;;;;;;15.82;97.41;98452.78;4175866;28;20281;-48
2023/10/03 02:54:59;;;;;;;5.57;2.38;;;;;;;15.82;97.65;98452.78;4175362;28;20605;-48
2023/10/03 02:57:00;;;;;;;2.03;1.67;;;;;;;15.93;98.48;98442.50;4157610;28;20331;-48
2023/10/03 02:59:03;;;;;;;3.42;1.90;;;;;;;16.33;94.42;98434.75;4157919;28;20278;-47
2023/10/03 03:01:05;;;;;;;2.90;1.52;;;;;;;16.24;94.53;98444.75;4157254;28;20209;-47
2023/10/03 03:03:07;;;;;;;2.28;1.85;;;;;;;16.29;95.01;98452.19;4151430;28;20291;-47
2023/10/03 03:05:10;;;;;;;3.28;2.15;;;;;;;16.21;95.55;98456.38;4158339;28;20209;-48
2023/10/03 03:07:12;;;;;;;2.60;1.50;;;;;;;16.17;95.43;98444.25;4158186;28;20581;-48
2023/10/03 03:09:18;;;;;;;2.35;2.03;;;;;;;16.15;95.81;98443.72;4157230;28;20196;-49
2023/10/03 03:11:20;;;;;;;4.53;2.15;;;;;;;16.18;96.10;98448.69;4157930;28;20216;-48
2023/10/03 03:13:23;;;;;;;4.10;1.55;;;;;;;16.19;96.49;98441.22;4158908;28;20208;-47
2023/10/03 03:15:27;;;;;;;3.75;1.95;;;;;;;16.27;95.18;98446.94;4153504;28;20225;-48
2023/10/03 03:17:29;;;;;;;2.65;1.88;;;;;;;16.34;94.59;98439.16;4158309;28;20295;-47
2023/10/03 03:19:33;;;;;;;2.33;1.83;;;;;;;16.45;94.52;98449.06;4136980;28;20270;-48
2023/10/03 03:21:34;;;;;;;3.42;2.33;;;;;;;16.47;93.71;98444.06;4158762;28;20290;-49
2023/10/03 03:23:38;;;;;;;2.63;2.08;;;;;;;16.51;93.73;98444.28;4169918;28;20667;-48
2023/10/03 03:25:42;;;;;;;1.92;1.50;;;;;;;16.48;94.21;98444.84;4169870;28;20278;-47
2023/10/03 03:27:44;;;;;;;3.33;1.45;;;;;;;16.40;94.36;98438.03;4159269;28;20295;-48
2023/10/03 03:32:20;;;;;;;1.77;1.48;;;;;;;16.42;94.67;98440.53;4143935;28;20208;-48
2023/10/03 03:34:21;;;;;;;2.92;2.00;;;;;;;16.42;94.49;98438.56;4157283;28;20275;-48
2023/10/03 03:36:37;;;;;;;3.33;1.98;;;;;;;16.31;94.77;98437.00;4158279;28;20233;-48
2023/10/03 03:38:41;;;;;;;3.55;2.03;;;;;;;16.33;93.92;98443.03;4153867;28;20788;-48
2023/10/03 03:40:46;;;;;;;2.70;2.10;;;;;;;16.30;94.60;98443.59;4154168;28;20565;-48
2023/10/03 03:42:48;;;;;;;1.85;1.52;;;;;;;16.25;94.44;98429.84;4170550;28;20709;-47
2023/10/03 03:44:50;;;;;;;3.20;1.75;;;;;;;16.32;94.87;98441.41;4172983;28;20215;-47
2023/10/03 03:46:52;;;;;;;2.72;1.73;;;;;;;16.34;94.85;98433.63;4157824;28;20244;-48
2023/10/03 03:48:54;;;;;;;2.08;1.42;;;;;;;16.34;94.55;98428.09;4153725;28;20214;-48
2023/10/03 03:50:56;;;;;;;3.67;2.17;;;;;;;16.30;94.93;98426.22;4154012;28;20779;-48
2023/10/03 03:53:02;;;;;;;2.33;1.92;;;;;;;16.36;94.80;98431.41;4156300;28;20197;-48
2023/10/03 03:55:04;;;;;;;3.53;1.70;;;;;;;16.36;95.07;98431.41;4142814;28;20636;-49
2023/10/03 03:57:06;;;;;;;2.90;1.73;;;;;;;16.34;94.91;98428.09;4157490;28;20220;-48
2023/10/03 03:59:09;;;;;;;2.35;1.50;;;;;;;16.36;94.33;98431.41;4157663;28;20663;-48
2023/10/03 04:01:19;;;;;;;2.50;1.48;;;;;;;16.29;94.61;98435.63;4155160;28;20209;-47
2023/10/03 04:03:23;;;;;;;2.88;1.52;;;;;;;16.26;94.87;98431.50;4158616;28;20282;-47
2023/10/03 04:05:27;;;;;;;3.17;2.05;;;;;;;16.20;95.36;98435.41;4158713;28;20231;-48
2023/10/03 04:07:29;;;;;;;1.98;1.42;;;;;;;16.19;94.84;98425.47;4158031;28;20357;-48
2023/10/03 04:09:31;;;;;;;5.70;1.75;;;;;;;16.16;95.06;98425.22;4156485;28;21531;-47
2023/10/03 04:11:33;;;;;;;10.32;2.22;;;;;;;16.12;95.13;98421.38;4153685;28;20236;-47
2023/10/03 04:13:39;;;;;;;2.38;1.70;;;;;;;16.13;95.31;98415.59;4157789;28;20967;-50
2023/10/03 04:15:41;;;;;;;2.28;2.00;;;;;;;16.16;95.79;98412.22;4156701;28;20241;-48
2023/10/03 04:17:43;;;;;;;3.80;1.90;;;;;;;16.18;96.16;98412.78;4157523;28;20213;-48
2023/10/03 04:19:45;;;;;;;2.03;1.60;;;;;;;16.19;96.25;98411.69;4153156;28;20403;-48
2023/10/03 04:21:47;;;;;;;3.42;1.77;;;;;;;16.39;95.27;98411.53;4157170;28;20623;-47
2023/10/03 04:23:49;;;;;;;1.90;1.75;;;;;;;16.33;95.35;98412.66;4174110;28;20215;-47
2023/10/03 04:25:52;;;;;;;2.10;1.33;;;;;;;16.33;95.44;98409.06;4158309;28;20237;-49
2023/10/03 04:27:55;;;;;;;1.88;1.30;;;;;;;16.31;95.75;98401.09;4162724;28;20243;-48
2023/10/03 04:29:56;;;;;;;1.70;1.55;;;;;;;16.35;95.59;98402.13;4162221;28;20209;-48
2023/10/03 04:31:58;;;;;;;3.80;2.05;;;;;;;16.27;95.58;98405.53;4152295;28;20272;-47
2023/10/03 04:34:00;;;;;;;2.25;1.67;;;;;;;16.26;96.19;98408.56;4169757;28;20211;-48
2023/10/03 04:36:04;;;;;;;2.85;1.67;;;;;;;16.17;96.72;98405.59;4173177;28;20220;-48
2023/10/03 04:38:06;;;;;;;2.90;1.83;;;;;;;16.15;97.22;98410.59;4156023;28;20287;-48
2023/10/03 04:40:36;;;;;;;3.05;1.63;;;;;;;16.09;97.38;98408.16;4156558;28;20295;-49
2023/10/03 04:42:38;;;;;;;4.72;1.67;;;;;;;16.14;97.53;98422.75;4170667;28;20235;-49
2023/10/03 04:44:40;;;;;;;2.78;1.85;;;;;;;16.14;97.67;98420.00;4174694;28;20223;-48
2023/10/03 04:46:44;;;;;;;2.03;1.83;;;;;;;16.30;97.29;98413.22;4140397;28;20316;-47
2023/10/03 04:48:46;;;;;;;2.00;1.70;;;;;;;16.36;96.11;98408.50;4157391;28;20208;-48
2023/10/03 04:50:48;;;;;;;3.08;1.80;;;;;;;16.49;96.00;98405.09;4168513;28;20254;-47
2023/10/03 04:52:50;;;;;;;3.45;2.17;;;;;;;16.79;93.73;98408.38;4157151;28;20213;-48
2023/10/03 04:54:51;;;;;;;1.88;1.58;;;;;;;17.03;91.85;98398.13;4156470;28;20275;-49
2023/10/03 04:56:53;;;;;;;3.33;1.50;;;;;;;17.21;90.37;98402.91;4157314;28;20233;-48
2023/10/03 04:58:55;;;;;;;3.25;2.00;;;;;;;17.38;89.30;98403.28;4154520;28;20220;-48
2023/10/03 05:00:57;;;;;;;2.95;1.88;;;;;;;17.65;87.38;98397.94;4157524;28;20201;-48
2023/10/03 05:02:59;;;;;;;2.35;1.70;;;;;;;17.63;87.43;98408.44;4151363;28;20730;-48
2023/10/03 05:05:01;;;;;;;1.88;1.48;;;;;;;17.62;87.02;98407.66;4158372;28;20988;-47
2023/10/03 05:07:03;;;;;;;0.93;0.90;;;;;;;17.68;86.92;98411.16;4156866;28;20235;-48
2023/10/03 05:09:04;;;;;;;2.10;1.92;;;;;;;17.70;86.44;98408.91;4156653;28;20621;-48
2023/10/03 05:11:13;;;;;;;1.80;1.23;;;;;;;17.65;86.96;98403.47;4156392;28;20205;-48
2023/10/03 05:13:16;;;;;;;1.88;1.23;;;;;;;17.78;85.96;98406.28;4155938;28;20215;-47
2023/10/03 05:15:19;;;;;;;2.30;2.13;;;;;;;17.79;86.25;98418.22;4156314;28;20299;-47
2023/10/03 05:17:21;;;;;;;1.88;1.48;;;;;;;17.82;85.93;98417.59;4156817;28;20219;-48
2023/10/03 05:19:24;;;;;;;2.42;1.80;;;;;;;17.73;86.52;98416.63;4157014;28;20318;-48
2023/10/03 05:21:25;;;;;;;2.45;1.70;;;;;;;17.93;85.15;98413.56;4150995;28;20210;-48
2023/10/03 05:23:28;;;;;;;2.97;1.95;;;;;;;17.88;85.53;98427.47;4153851;28;20251;-47
2023/10/03 05:25:30;;;;;;;2.65;1.42;;;;;;;17.84;85.86;98420.91;4156246;28;21089;-48
2023/10/03 05:27:32;;;;;;;2.80;1.77;;;;;;;17.96;84.95;98430.41;4151516;28;20210;-46
2023/10/03 05:29:34;;;;;;;2.33;1.35;;;;;;;17.95;85.42;98428.75;4173495;28;20204;-48
2023/10/03 05:31:40;;;;;;;5.35;1.52;;;;;;;17.96;84.87;98419.31;4155286;28;20231;-47
2023/10/03 05:33:42;;;;;;;2.85;1.52;;;;;;;18.07;84.65;98420.00;4155521;28;20658;-48
2023/10/03 05:35:46;;;;;;;1.55;1.45;;;;;;;18.02;84.59;98417.28;4140351;28;20247;-48
2023/10/03 05:37:50;;;;;;;2.20;2.00;;;;;;;17.99;84.80;98429.78;4153803;28;20260;-48
2023/10/03 05:39:53;;;;;;;1.30;1.10;;;;;;;17.93;85.41;98430.19;4151470;28;20720;-47
2023/10/03 05:41:56;;;;;;;1.92;1.83;;;;;;;17.98;84.97;98424.56;4156710;28;20208;-48
2023/10/03 05:43:58;;;;;;;2.22;1.42;;;;;;;17.91;85.69;98422.16;4155148;28;20204;-48
2023/10/03 05:45:59;;;;;;;6.72;2.00;;;;;;;17.84;86.20;98432.78;4154790;28;20271;-47
2023/10/03 05:48:04;;;;;;;1.90;1.45;;;;;;;17.84;86.02;98420.91;4139376;28;20205;-48
2023/10/03 05:50:09;;;;;;;1.75;1.00;;;;;;;17.94;85.77;98431.81;4155605;28;20235;-48
2023/10/03 05:52:11;;;;;;;1.70;1.30;;;;;;;18.04;84.74;98438.03;4156820;28;20228;-49
2023/10/03 05:54:13;;;;;;;1.77;1.00;;;;;;;18.18;84.20;98432.56;4156059;28;20212;-47
2023/10/03 05:56:15;;;;;;;2.58;1.88;;;;;;;18.16;84.33;98440.34;4138013;28;20607;-49
2023/10/03 05:58:16;;;;;;;2.30;1.60;;;;;;;18.22;83.96;98439.97;4139414;28;20209;-48
2023/10/03 06:00:19;;;;;;;3.63;1.48;;;;;;;18.21;84.15;98449.41;4155313;28;20215;-48
2023/10/03 06:02:21;;;;;;;3.45;2.35;;;;;;;18.26;83.72;98452.09;4153463;28;20201;-48
2023/10/03 06:04:24;;;;;;;1.67;1.45;;;;;;;18.32;83.46;98450.09;4155125;28;20296;-48
2023/10/03 06:06:28;;;;;;;1.50;1.10;;;;;;;18.21;84.00;98454.94;4154764;28;20235;-48
2023/10/03 06:08:32;;;;;;;1.42;1.33;;;;;;;18.32;83.48;98455.66;4157448;28;20810;-48
2023/10/03 06:10:33;;;;;;;2.78;1.63;;;;;;;18.27;83.85;98456.53;4155242;28;20211;-49
2023/10/03 06:12:35;;;;;;;5.43;1.45;;;;;;;18.21;84.18;98448.56;4157344;28;20209;-48
2023/10/03 06:14:39;;;;;;;1.23;1.13;;;;;;;18.30;83.36;98446.75;4173395;28;20557;-48
2023/10/03 06:16:41;;;;;;;3.70;1.55;;;;;;;18.27;84.06;98442.66;4156767;28;20224;-48
2023/10/03 06:18:44;;;;;;;3.78;1.42;;;;;;;18.37;83.23;98438.91;4155487;28;21054;-48
2023/10/03 06:20:49;;;;;;;9.10;1.60;;;;;;;18.38;83.00;98448.91;4155142;28;20239;-48
2023/10/03 06:22:51;;;;;;;3.92;1.55;;;;;;;18.50;82.30;98440.91;4156037;28;20664;-48
2023/10/03 06:24:57;;;;;;;2.00;1.27;;;;;;;18.52;82.54;98444.22;4155537;28;20675;-48
2023/10/03 06:26:59;;;;;;;2.05;1.42;;;;;;;18.58;82.15;98443.81;4156290;28;20235;-48
2023/10/03 06:29:01;;;;;;;2.00;1.35;;;;;;;18.60;81.79;98438.00;4156506;28;20201;-48
2023/10/03 06:31:03;;;;;;;2.10;1.90;;;;;;;18.70;81.32;98457.19;4159764;28;20662;-49
2023/10/03 06:33:07;;;;;;;2.47;1.27;;;;;;;18.77;80.70;98438.25;4160072;28;20204;-48
2023/10/03 06:35:09;;;;;;;3.30;1.45;;;;;;;18.76;81.57;98448.50;4164431;28;20554;-48
2023/10/03 06:37:11;;;;;;;2.33;1.52;;;;;;;18.88;81.11;98442.47;4154711;28;20213;-47
2023/10/03 06:39:13;;;;;;;2.75;1.70;;;;;;;19.01;79.82;98456.38;4156009;28;20275;-48
2023/10/03 06:41:22;;;;;;;3.35;1.85;;;;;;;19.02;80.36;98460.78;4153156;28;20211;-48
2023/10/03 06:43:24;;;;;;;3.00;1.42;;;;;;;19.20;79.33;98461.88;4155688;28;20583;-47
2023/10/03 06:45:26;;;;;;;3.13;1.98;;;;;;;19.25;78.97;98459.00;4154980;28;20240;-48
2023/10/03 06:47:29;;;;;;;1.95;1.48;;;;;;;19.05;79.70;98462.94;4150282;28;21940;-47
2023/10/03 06:49:31;;;;;;;2.25;1.70;;;;;;;19.01;80.10;98463.84;4138194;28;20216;-49
2023/10/03 06:51:33;;;;;;;2.95;1.60;;;;;;;18.95;80.37;98465.91;4151444;28;20312;-49
2023/10/03 06:53:35;;;;;;;1.77;1.67;;;;;;;18.95;80.25;98470.63;4138534;28;20220;-48
2023/10/03 06:55:37;;;;;;;2.67;1.58;;;;;;;18.96;80.54;98472.28;4173273;28;20232;-48
2023/10/03 06:57:40;;;;;;;3.88;2.45;;;;;;;18.91;80.91;98472.38;4156395;28;20636;-48
2023/10/03 06:59:42;;;;;;;3.65;1.60;;;;;;;18.89;81.20;98477.38;4154686;28;20234;-48
2023/10/03 07:01:44;;;;;;;2.08;1.70;;;;;;;18.98;80.52;98470.03;4156714;28;20240;-47
2023/10/03 07:03:47;;;;;;;7.18;1.70;;;;;;;18.91;81.15;98469.59;4157457;28;20295;-48
2023/10/03 07:05:49;;;;;;;2.47;1.90;;;;;;;18.85;81.80;98482.72;4154813;28;20328;-48
2023/10/03 07:07:51;;;;;;;1.23;1.13;;;;;;;18.82;82.06;98488.06;4154526;28;20295;-47
2023/10/03 07:09:53;;;;;;;2.58;1.48;;;;;;;18.85;82.14;98476.38;4142459;28;20701;-48
2023/10/03 07:11:55;;;;;;;4.43;1.90;;;;;;;18.86;82.08;98478.00;4160358;28;20215;-49
2023/10/03 07:13:57;;;;;;;1.90;1.73;;;;;;;18.81;82.74;98469.78;4158949;28;20208;-48
2023/10/03 07:15:59;;;;;;;2.28;1.65;;;;;;;18.83;83.01;98484.97;4156958;28;20638;-48
2023/10/03 07:18:03;;;;;;;2.40;1.70;;;;;;;18.84;83.30;98485.81;4158508;28;20200;-48
2023/10/03 07:20:08;;;;;;;2.55;2.17;;;;;;;18.92;82.87;98485.91;4158994;28;20259;-47
2023/10/03 07:22:10;;;;;;;1.95;1.30;;;;;;;19.00;82.78;98481.63;4154528;28;20231;-48
2023/10/03 07:24:12;;;;;;;3.25;1.67;;;;;;;19.09;81.80;98488.94;4154077;28;20689;-48
2023/10/03 07:26:14;;;;;;;4.07;1.73;;;;;;;19.09;82.06;98479.78;4153904;28;20220;-47
2023/10/03 07:28:16;;;;;;;2.08;1.75;;;;;;;19.03;82.59;98478.25;4176892;28;20225;-47
2023/10/03 07:30:18;;;;;;;1.50;1.40;;;;;;;19.07;82.09;98487.59;4160213;28;20745;-49
2023/10/03 07:32:20;;;;;;;1.92;1.63;;;;;;;19.14;82.17;98479.72;4156830;28;20204;-49
2023/10/03 07:34:22;;;;;;;2.15;1.25;;;;;;;19.13;82.22;98483.63;4159015;28;20279;-47
2023/10/03 07:36:25;;;;;;;2.85;1.50;;;;;;;19.11;82.30;98474.78;4158851;28;20239;-48
2023/10/03 07:38:28;;;;;;;7.18;1.60;;;;;;;19.08;82.92;98480.94;4158218;28;20215;-48
2023/10/03 07:40:30;;;;;;;2.47;1.65;;;;;;;19.14;82.41;98490.81;4158378;28;20252;-48
2023/10/03 07:42:32;;;;;;;2.70;2.00;;;;;;;19.18;82.65;98489.06;4153259;28;20205;-48
2023/10/03 07:44:35;;;;;;;4.57;1.27;;;;;;;19.18;82.25;98491.84;4151738;28;20208;-48
2023/10/03 07:46:37;;;;;;;2.13;1.75;;;;;;;19.20;82.22;98484.06;4155672;28;20228;-48
2023/10/03 07:48:41;;;;;;;2.72;1.83;;;;;;;19.21;82.38;98482.94;4142354;28;20214;-48
2023/10/03 07:50:45;;;;;;;2.80;1.30;;;;;;;19.44;80.66;98485.53;4156530;28;20209;-47
2023/10/03 07:52:48;;;;;;;2.15;1.60;;;;;;;19.49;80.32;98492.91;4158439;28;20696;-47
2023/10/03 07:54:56;;;;;;;1.63;1.52;;;;;;;19.45;81.21;98500.22;4152736;28;20209;-47
2023/10/03 07:57:03;;;;;;;1.92;1.55;;;;;;;19.50;81.13;98500.94;4158829;28;20227;-49
2023/10/03 07:59:05;;;;;;;3.42;1.50;;;;;;;19.48;80.91;98502.38;4158857;28;20909;-47
2023/10/03 08:01:07;;;;;;;4.05;2.15;;;;;;;19.47;81.11;98490.47;4158468;28;20634;-47
2023/10/03 08:03:11;;;;;;;4.50;1.83;;;;;;;19.48;81.27;98491.28;4174769;28;20674;-48
2023/10/03 08:05:13;;;;;;;2.42;1.63;;;;;;;19.46;81.58;98499.09;4155981;28;20205;-48
2023/10/03 08:07:22;;;;;;;4.00;1.98;;;;;;;19.54;80.90;98501.16;4157250;28;20208;-47
2023/10/03 08:09:24;;;;;;;2.38;2.17;;;;;;;19.55;80.95;98500.00;4158238;28;20761;-48
2023/10/03 08:11:30;;;;;;;3.20;1.67;;;;;;;19.56;81.34;98502.50;4157410;28;20293;-49
2023/10/03 08:13:38;;;;;;;2.75;1.65;;;;;;;19.64;80.91;98499.00;4157467;28;20208;-49
2023/10/03 08:15:42;;;;;;;2.78;1.40;;;;;;;19.75;81.11;98499.59;4155077;28;20582;-47
2023/10/03 08:17:45;;;;;;;3.47;1.80;;;;;;;19.88;80.09;98496.81;4169436;28;20208;-48
2023/10/03 08:19:48;;;;;;;2.40;1.63;;;;;;;19.99;78.93;98509.34;4170213;28;20232;-47
2023/10/03 08:21:52;;;;;;;6.60;1.83;;;;;;;20.10;78.53;98515.56;4157962;28;20267;-47
2023/10/03 08:23:57;;;;;;;2.03;1.77;;;;;;;20.45;77.72;98523.09;4156313;28;20785;-49
2023/10/03 08:26:02;;;;;;;1.55;1.25;;;;;;;20.52;76.78;98529.84;4157890;28;20232;-47
2023/10/03 08:28:09;;;;;;;1.67;1.17;;;;;;;20.70;75.48;98530.84;4158383;28;20231;-47
2023/10/03 08:30:25;;;;;;;6.45;2.28;;;;;;;20.87;75.67;98525.38;4144722;28;20291;-48
2023/10/03 08:32:27;;;;;;;3.30;1.67;;;;;;;21.41;74.93;98541.81;4161196;28;20215;-48
2023/10/03 08:34:30;;;;;;;2.53;1.83;;;;;;;21.51;73.25;98542.34;4161113;28;20304;-48
2023/10/03 08:36:37;;;;;;;2.42;1.50;;;;;;;21.56;73.18;98544.19;4160576;28;20812;-48
2023/10/03 08:38:43;;;;;;;2.45;1.73;;;;;;;21.63;72.61;98539.00;4157656;28;20204;-48
2023/10/03 08:40:49;;;;;;;3.58;1.65;;;;;;;21.89;71.99;98532.41;4157152;28;20274;-49
2023/10/03 08:42:52;;;;;;;2.08;1.33;;;;;;;22.02;70.19;98536.19;4156592;28;20212;-48
2023/10/03 08:44:56;;;;;;;2.75;1.60;;;;;;;22.00;70.77;98532.94;4153340;28;20230;-48
2023/10/03 08:47:01;;;;;;;3.42;1.98;;;;;;;21.97;70.50;98539.97;4154886;28;20242;-48
2023/10/03 08:49:08;;;;;;;4.28;1.50;;;;;;;22.21;69.84;98545.94;4169520;28;20215;-48
2023/10/03 08:51:13;;;;;;;5.15;1.70;;;;;;;22.41;69.84;98547.28;4156974;28;20203;-48
2023/10/03 08:53:16;;;;;;;3.08;1.83;;;;;;;22.79;69.78;98540.81;4156588;28;20207;-48
2023/10/03 08:55:21;;;;;;;2.50;1.38;;;;;;;22.48;68.70;98534.53;4141170;28;21038;-48
2023/10/03 08:57:23;;;;;;;3.63;1.27;;;;;;;22.72;68.50;98540.44;4158396;28;20207;-48
2023/10/03 08:59:30;;;;;;;6.20;2.38;;;;;;;22.32;68.42;98535.31;4144334;28;20239;-49
2023/10/03 09:01:33;;;;;;;3.08;1.77;;;;;;;22.53;69.27;98525.19;4167699;28;20701;-48
2023/10/03 09:03:47;;;;;;;2.95;1.20;;;;;;;22.42;68.19;98529.41;4156908;28;20261;-48
2023/10/03 09:05:50;;;;;;;3.30;1.85;;;;;;;22.23;69.29;98520.53;4156985;28;20220;-48
2023/10/03 09:07:58;;;;;;;2.05;1.60;;;;;;;22.36;68.66;98530.69;4168629;28;20297;-47
2023/10/03 09:10:08;;;;;;;1.38;1.27;;;;;;;21.97;69.36;98533.59;4140588;28;20200;-49
2023/10/03 09:12:15;;;;;;;2.22;1.63;;;;;;;21.99;69.84;98543.28;4152762;28;20240;-48
2023/10/03 09:14:20;;;;;;;2.40;1.85;;;;;;;22.04;70.37;98542.28;4154864;28;20214;-47
2023/10/03 09:16:23;;;;;;;5.10;1.60;;;;;;;22.26;70.05;98544.97;4158057;28;20230;-47
2023/10/03 09:18:26;;;;;;;2.13;1.58;;;;;;;22.69;69.21;98557.03;4171772;28;20241;-48
2023/10/03 09:20:31;;;;;;;3.60;1.58;;;;;;;22.71;68.57;98560.31;4157237;28;20228;-49
2023/10/03 09:22:33;;;;;;;4.15;2.08;;;;;;;22.94;67.77;98565.41;4156366;28;20212;-48
2023/10/03 09:24:43;;;;;;;6.03;1.52;;;;;;;22.53;68.64;98572.59;4150763;28;20823;-46
2023/10/03 09:26:54;;;;;;;2.53;1.67;;;;;;;22.49;68.99;98574.41;4151703;28;20279;-49
2023/10/03 09:28:58;;;;;;;2.85;2.28;;;;;;;22.18;69.39;98563.31;4154879;28;20219;-48
2023/10/03 09:31:01;;;;;;;3.70;1.63;;;;;;;22.19;70.42;98567.75;4150994;28;20200;-49
2023/10/03 09:33:05;;;;;;;2.90;2.17;;;;;;;21.98;70.47;98574.25;4158932;28;20607;-48
2023/10/03 09:35:10;;;;;;;2.45;1.58;;;;;;;22.03;70.80;98565.75;4140149;28;20300;-48
2023/10/03 09:37:12;;;;;;;2.42;1.30;;;;;;;22.21;72.03;98573.00;4168225;28;20708;-49
2023/10/03 09:39:23;;;;;;;2.08;1.55;;;;;;;22.26;71.03;98570.06;4155912;28;20287;-48
2023/10/03 09:41:26;;;;;;;1.08;0.95;;;;;;;22.08;70.62;98563.63;4157440;28;20363;-49